Time;durP1;ratioP1;P1;durP2;ratioP2;P2;SDS_P1;SDS_P2;PMS_P1;PMS_P2;Temp;Humidity;BMP_temperature;BMP_pressure;BME280_temperature;BME280_humidity;BME280_pressure;Samples;Min_cycle;Max_cycle;Signal;HPM_P1;HPM_P2
2023/01/28 00:02:17;;;;;;;4.17;3.03;;;;;;;;;;5058287;28;20445;-79
2023/01/28 00:04:43;;;;;;;5.82;3.75;;;;;;;;;;5058866;28;20422;-79
2023/01/28 00:07:09;;;;;;;6.90;3.38;;;;;;;;;;5077559;28;20228;-78
2023/01/28 00:09:35;;;;;;;3.08;2.78;;;;;;;;;;5059736;28;20267;-79
2023/01/28 00:12:01;;;;;;;6.85;3.50;;;;;;;;;;5060313;28;20192;-78
2023/01/28 00:14:27;;;;;;;4.60;3.38;;;;;;;;;;5059878;28;20204;-78
2023/01/28 00:16:53;;;;;;;3.80;3.40;;;;;;;;;;5078016;28;20211;-78
2023/01/28 00:19:19;;;;;;;3.77;3.47;;;;;;;;;;5043178;28;20426;-78
2023/01/28 00:21:45;;;;;;;7.13;3.90;;;;;;;;;;5042915;28;20444;-79
2023/01/28 00:24:11;;;;;;;3.73;3.43;;;;;;;;;;5043159;28;20423;-78
2023/01/28 00:26:37;;;;;;;3.93;3.53;;;;;;;;;;5043137;28;20418;-79
2023/01/28 00:29:03;;;;;;;4.23;3.47;;;;;;;;;;5059243;28;20812;-78
2023/01/28 00:31:29;;;;;;;6.60;4.55;;;;;;;;;;5059155;28;20466;-78
2023/01/28 00:33:56;;;;;;;5.00;4.07;;;;;;;;;;5059964;28;20527;-78
2023/01/28 00:36:23;;;;;;;6.20;4.53;;;;;;;;;;5076730;28;20185;-78
2023/01/28 00:38:50;;;;;;;6.75;4.55;;;;;;;;;;5059339;28;20253;-78
2023/01/28 00:41:17;;;;;;;7.53;4.70;;;;;;;;;;5059430;28;20274;-78
2023/01/28 00:43:44;;;;;;;5.38;4.53;;;;;;;;;;5059279;28;20179;-79
2023/01/28 00:46:11;;;;;;;4.78;4.28;;;;;;;;;;5059375;28;20190;-78
2023/01/28 00:48:37;;;;;;;6.40;5.13;;;;;;;;;;5059209;28;20172;-79
2023/01/28 00:51:04;;;;;;;4.65;4.25;;;;;;;;;;5077707;28;20584;-78
2023/01/28 00:53:30;;;;;;;5.30;4.72;;;;;;;;;;5059454;28;20270;-78
2023/01/28 00:55:56;;;;;;;4.95;4.18;;;;;;;;;;5076982;28;20177;-78
2023/01/28 00:58:23;;;;;;;6.27;5.50;;;;;;;;;;5042990;28;20186;-78
2023/01/28 01:00:49;;;;;;;4.72;4.03;;;;;;;;;;5058584;28;20406;-78
2023/01/28 01:03:15;;;;;;;5.20;4.70;;;;;;;;;;5077114;28;20257;-78
2023/01/28 01:05:41;;;;;;;5.68;4.80;;;;;;;;;;5058796;28;20185;-78
2023/01/28 01:08:07;;;;;;;5.30;4.67;;;;;;;;;;5042527;28;20241;-78
2023/01/28 01:10:33;;;;;;;6.03;5.27;;;;;;;;;;5058417;28;20411;-78
2023/01/28 01:12:59;;;;;;;5.85;4.53;;;;;;;;;;5076580;28;20464;-78
2023/01/28 01:15:26;;;;;;;7.00;5.15;;;;;;;;;;5042370;28;20590;-78
2023/01/28 01:17:52;;;;;;;6.90;5.15;;;;;;;;;;5058524;28;20558;-78
2023/01/28 01:20:22;;;;;;;6.82;4.75;;;;;;;;;;5058729;28;20223;-78
2023/01/28 01:22:48;;;;;;;6.32;5.00;;;;;;;;;;5075844;28;20157;-78
2023/01/28 01:25:15;;;;;;;5.30;4.40;;;;;;;;;;5042408;28;20322;-78
2023/01/28 01:27:41;;;;;;;7.15;5.32;;;;;;;;;;5041570;28;20181;-78
2023/01/28 01:30:08;;;;;;;6.85;5.28;;;;;;;;;;5058531;28;20183;-78
2023/01/28 01:32:34;;;;;;;7.07;5.65;;;;;;;;;;5058428;28;20184;-79
2023/01/28 01:35:00;;;;;;;5.90;5.28;;;;;;;;;;5042587;28;20216;-78
2023/01/28 01:37:26;;;;;;;6.80;5.85;;;;;;;;;;5058830;28;20601;-78
2023/01/28 01:39:52;;;;;;;6.82;5.00;;;;;;;;;;5041834;28;20174;-78
2023/01/28 01:42:19;;;;;;;6.68;5.03;;;;;;;;;;5076212;28;20174;-78
2023/01/28 01:45:02;;;;;;;9.13;5.47;;;;;;;;;;5058113;28;20192;-78
2023/01/28 01:47:54;;;;;;;6.30;5.70;;;;;;;;;;5058789;28;20178;-77
2023/01/28 01:50:20;;;;;;;8.15;5.68;;;;;;;;;;5059638;28;20190;-78
2023/01/28 01:52:47;;;;;;;10.60;6.28;;;;;;;;;;5062324;28;20173;-78
2023/01/28 01:55:16;;;;;;;6.60;5.47;;;;;;;;;;5062683;28;20196;-78
2023/01/28 01:57:43;;;;;;;7.80;5.78;;;;;;;;;;5080130;28;20186;-78
2023/01/28 02:00:09;;;;;;;7.38;5.10;;;;;;;;;;5062346;28;20606;-78
2023/01/28 02:02:37;;;;;;;8.18;6.80;;;;;;;;;;5080223;28;20256;-79
2023/01/28 02:05:04;;;;;;;6.75;6.05;;;;;;;;;;5062210;28;20174;-78
2023/01/28 02:07:30;;;;;;;6.35;5.53;;;;;;;;;;5061460;28;20241;-78
2023/01/28 02:09:56;;;;;;;6.57;5.90;;;;;;;;;;5062292;28;20598;-78
2023/01/28 02:12:24;;;;;;;8.40;6.03;;;;;;;;;;5080429;28;20177;-78
2023/01/28 02:15:01;;;;;;;10.88;6.53;;;;;;;;;;5061150;28;20459;-78
2023/01/28 02:17:27;;;;;;;9.05;7.05;;;;;;;;;;5062198;28;20184;-78
2023/01/28 02:20:28;;;;;;;9.80;7.03;;;;;;;;;;5061567;28;20176;-78
2023/01/28 02:23:03;;;;;;;9.75;8.13;;;;;;;;;;5017867;28;20198;-78
2023/01/28 02:25:41;;;;;;;12.38;7.88;;;;;;;;;;5071292;28;20195;-78
2023/01/28 02:28:10;;;;;;;13.98;8.07;;;;;;;;;;5079643;28;20593;-78
2023/01/28 02:30:39;;;;;;;13.57;8.38;;;;;;;;;;5061539;28;20237;-78
2023/01/28 02:33:08;;;;;;;16.42;10.02;;;;;;;;;;5061776;28;20185;-78
2023/01/28 02:35:37;;;;;;;10.45;8.50;;;;;;;;;;5061613;28;20258;-79
2023/01/28 02:38:07;;;;;;;14.07;8.95;;;;;;;;;;5079107;28;20206;-78
2023/01/28 02:41:00;;;;;;;11.25;8.68;;;;;;;;;;5079464;28;20532;-78
2023/01/28 02:43:33;;;;;;;12.60;10.15;;;;;;;;;;5078111;28;20585;-78
2023/01/28 02:48:48;;;;;;;12.80;9.82;;;;;;;;;;5079901;28;20232;-78
2023/01/28 02:51:19;;;;;;;13.18;10.25;;;;;;;;;;5045331;28;20211;-78
2023/01/28 02:53:48;;;;;;;11.88;9.05;;;;;;;;;;5061140;28;20212;-78
2023/01/28 02:56:23;;;;;;;18.77;10.68;;;;;;;;;;5062072;28;20183;-78
2023/01/28 02:58:57;;;;;;;11.93;8.57;;;;;;;;;;5058580;28;20197;-78
2023/01/28 03:01:25;;;;;;;17.35;10.85;;;;;;;;;;5061378;28;20191;-78
2023/01/28 03:03:54;;;;;;;14.90;10.43;;;;;;;;;;5078913;28;20178;-78
2023/01/28 03:06:23;;;;;;;13.48;7.65;;;;;;;;;;5061378;28;20240;-78
2023/01/28 03:36:54;;;;;;;8.02;6.80;;;;;;;;;;5078125;28;20194;-78
2023/01/28 03:39:25;;;;;;;10.90;7.97;;;;;;;;;;5061143;28;20177;-78
2023/01/28 03:41:59;;;;;;;10.40;8.93;;;;;;;;;;5060219;28;20172;-78
2023/01/28 03:47:10;;;;;;;10.50;8.63;;;;;;;;;;5078557;28;20162;-78
2023/01/28 03:49:40;;;;;;;9.00;7.28;;;;;;;;;;5061206;28;20626;-78
2023/01/28 03:52:07;;;;;;;8.65;7.72;;;;;;;;;;5060460;28;20348;-78
2023/01/28 03:54:33;;;;;;;7.60;6.80;;;;;;;;;;5078111;28;20200;-78
2023/01/28 03:56:58;;;;;;;9.45;6.10;;;;;;;;;;5043317;28;20218;-78
2023/01/28 03:59:24;;;;;;;8.25;6.40;;;;;;;;;;5043232;28;20282;-78
2023/01/28 04:01:50;;;;;;;7.20;6.03;;;;;;;;;;5043205;28;20179;-78
2023/01/28 04:04:23;;;;;;;7.60;6.80;;;;;;;;;;5060760;28;20416;-76
2023/01/28 04:06:50;;;;;;;9.13;7.60;;;;;;;;;;5044176;28;20511;-77
2023/01/28 04:09:16;;;;;;;10.00;7.93;;;;;;;;;;5060518;28;20208;-76
2023/01/28 04:11:42;;;;;;;7.32;6.50;;;;;;;;;;5043283;28;20184;-76
2023/01/28 04:14:08;;;;;;;12.50;7.43;;;;;;;;;;5043669;28;20200;-76
2023/01/28 04:16:35;;;;;;;10.10;8.10;;;;;;;;;;5044634;28;20266;-76
2023/01/28 04:19:01;;;;;;;13.75;7.47;;;;;;;;;;5059661;28;20173;-76
2023/01/28 04:21:27;;;;;;;9.02;7.88;;;;;;;;;;5060506;28;20174;-76
2023/01/28 04:23:53;;;;;;;10.05;8.25;;;;;;;;;;5059877;28;20182;-76
2023/01/28 04:26:19;;;;;;;10.87;7.47;;;;;;;;;;5060512;28;20660;-76
2023/01/28 04:28:45;;;;;;;10.00;7.85;;;;;;;;;;5043181;28;20432;-77
2023/01/28 04:31:11;;;;;;;8.73;7.30;;;;;;;;;;5060272;28;20174;-77
2023/01/28 04:33:37;;;;;;;9.63;7.28;;;;;;;;;;5042924;28;20869;-76
2023/01/28 04:36:03;;;;;;;9.50;8.50;;;;;;;;;;5042803;28;20217;-77
2023/01/28 04:38:29;;;;;;;9.27;8.27;;;;;;;;;;5043049;28;20512;-76
2023/01/28 04:40:55;;;;;;;13.40;8.77;;;;;;;;;;5077528;28;20656;-77
2023/01/28 04:43:21;;;;;;;9.57;8.30;;;;;;;;;;5077494;28;20426;-76
2023/01/28 04:45:47;;;;;;;9.93;8.57;;;;;;;;;;5043027;28;20977;-77
2023/01/28 04:48:14;;;;;;;10.73;8.43;;;;;;;;;;5059438;28;20182;-76
2023/01/28 04:50:40;;;;;;;12.32;8.55;;;;;;;;;;5077205;28;20174;-76
2023/01/28 04:53:06;;;;;;;11.10;8.48;;;;;;;;;;5059820;28;20191;-77
2023/01/28 04:55:32;;;;;;;12.73;10.35;;;;;;;;;;5042275;28;20747;-76
2023/01/28 04:57:58;;;;;;;14.53;11.33;;;;;;;;;;5059228;28;20292;-77
2023/01/28 05:00:24;;;;;;;13.38;11.95;;;;;;;;;;5059779;28;20422;-77
2023/01/28 05:02:50;;;;;;;15.00;10.60;;;;;;;;;;5042608;28;20183;-77
2023/01/28 05:05:16;;;;;;;17.80;13.63;;;;;;;;;;5043527;28;20519;-76
2023/01/28 05:07:42;;;;;;;15.38;12.30;;;;;;;;;;5059224;28;20463;-76
2023/01/28 05:10:08;;;;;;;17.23;14.50;;;;;;;;;;5059278;28;20255;-76
2023/01/28 05:12:34;;;;;;;18.20;15.20;;;;;;;;;;5059193;28;20612;-76
2023/01/28 05:15:00;;;;;;;18.83;14.98;;;;;;;;;;5042406;28;20211;-77
2023/01/28 05:17:27;;;;;;;19.92;15.77;;;;;;;;;;5076703;28;20175;-76
2023/01/28 05:19:53;;;;;;;21.00;16.67;;;;;;;;;;5058528;28;20518;-77
2023/01/28 05:22:19;;;;;;;19.25;15.95;;;;;;;;;;5042175;28;20199;-77
2023/01/28 05:24:45;;;;;;;20.80;16.30;;;;;;;;;;5040747;28;20190;-77
2023/01/28 05:27:11;;;;;;;28.40;19.77;;;;;;;;;;5057137;28;20171;-76
2023/01/28 05:29:38;;;;;;;21.50;17.50;;;;;;;;;;5060476;28;20421;-76
2023/01/28 05:32:04;;;;;;;26.02;18.15;;;;;;;;;;5058950;28;20451;-77
2023/01/28 05:34:30;;;;;;;24.05;17.48;;;;;;;;;;5043258;28;20257;-76
2023/01/28 05:36:56;;;;;;;26.30;18.60;;;;;;;;;;5042566;28;20191;-76
2023/01/28 05:39:22;;;;;;;23.20;16.63;;;;;;;;;;5042930;28;20433;-76
2023/01/28 05:41:48;;;;;;;25.92;17.17;;;;;;;;;;5042907;28;20426;-76
2023/01/28 05:44:14;;;;;;;27.30;18.77;;;;;;;;;;5042889;28;20602;-76
2023/01/28 05:46:44;;;;;;;23.90;16.30;;;;;;;;;;5042439;28;20183;-76
2023/01/28 05:49:12;;;;;;;22.17;16.05;;;;;;;;;;5059228;28;20178;-76
2023/01/28 05:51:38;;;;;;;22.80;15.80;;;;;;;;;;5042700;28;20180;-77
2023/01/28 05:54:05;;;;;;;27.52;17.00;;;;;;;;;;5059103;28;20234;-76
2023/01/28 05:56:31;;;;;;;23.25;16.45;;;;;;;;;;5059165;28;20210;-77
2023/01/28 05:58:57;;;;;;;24.47;16.50;;;;;;;;;;5058503;28;20175;-77
2023/01/28 06:01:23;;;;;;;28.20;15.90;;;;;;;;;;5042807;28;20511;-76
2023/01/28 06:03:49;;;;;;;26.93;16.50;;;;;;;;;;5077296;28;20818;-77
2023/01/28 06:06:15;;;;;;;22.98;14.98;;;;;;;;;;5042005;28;20426;-77
2023/01/28 06:08:41;;;;;;;25.83;15.35;;;;;;;;;;5042622;28;20557;-76
2023/01/28 06:11:07;;;;;;;26.20;17.00;;;;;;;;;;5041620;28;20190;-76
2023/01/28 06:13:33;;;;;;;25.67;16.80;;;;;;;;;;5042252;28;20918;-76
2023/01/28 06:15:59;;;;;;;26.35;16.70;;;;;;;;;;5041257;28;20435;-77
2023/01/28 06:18:25;;;;;;;23.07;15.03;;;;;;;;;;5058685;28;20184;-77
2023/01/28 06:20:51;;;;;;;26.42;15.30;;;;;;;;;;5058201;28;20402;-77
2023/01/28 06:23:17;;;;;;;23.60;15.45;;;;;;;;;;5042564;28;20182;-77
2023/01/28 06:25:43;;;;;;;22.95;14.30;;;;;;;;;;5058744;28;20674;-77
2023/01/28 06:28:09;;;;;;;23.60;15.37;;;;;;;;;;5058054;28;20205;-77
2023/01/28 06:30:35;;;;;;;21.60;14.15;;;;;;;;;;5058193;28;20775;-77
2023/01/28 06:33:01;;;;;;;30.33;15.85;;;;;;;;;;5041140;28;20184;-77
2023/01/28 06:35:27;;;;;;;20.05;14.00;;;;;;;;;;5044376;28;20245;-77
2023/01/28 06:37:53;;;;;;;21.63;15.13;;;;;;;;;;5044879;28;20197;-78
2023/01/28 06:40:21;;;;;;;22.77;14.10;;;;;;;;;;5045422;28;20475;-77
2023/01/28 06:42:47;;;;;;;19.95;14.40;;;;;;;;;;5061437;28;20180;-78
2023/01/28 06:45:13;;;;;;;20.23;14.30;;;;;;;;;;5079306;28;20186;-77
2023/01/28 06:47:39;;;;;;;22.53;14.03;;;;;;;;;;5061668;28;20481;-77
2023/01/28 06:50:05;;;;;;;22.50;13.90;;;;;;;;;;5060905;28;20443;-77
2023/01/28 06:52:31;;;;;;;23.23;14.35;;;;;;;;;;5044803;28;20180;-77
2023/01/28 06:54:57;;;;;;;22.37;14.00;;;;;;;;;;5061488;28;20208;-77
2023/01/28 06:57:23;;;;;;;18.63;13.48;;;;;;;;;;5044731;28;20418;-77
2023/01/28 06:59:49;;;;;;;23.23;14.33;;;;;;;;;;5044593;28;20672;-77
2023/01/28 07:02:15;;;;;;;22.30;12.93;;;;;;;;;;5042565;28;20419;-77
2023/01/28 07:04:41;;;;;;;20.27;14.00;;;;;;;;;;5054897;28;20427;-77
2023/01/28 07:07:07;;;;;;;21.80;15.63;;;;;;;;;;5048352;28;20557;-77
2023/01/28 07:09:33;;;;;;;19.03;12.90;;;;;;;;;;5041770;28;21138;-77
2023/01/28 07:11:59;;;;;;;17.60;11.73;;;;;;;;;;5060278;28;20454;-77
2023/01/28 07:14:25;;;;;;;17.15;12.40;;;;;;;;;;5060797;28;20457;-77
2023/01/28 07:16:51;;;;;;;17.43;12.20;;;;;;;;;;5044866;28;20645;-77
2023/01/28 07:19:17;;;;;;;17.95;11.40;;;;;;;;;;5078359;28;20467;-79
2023/01/28 07:21:43;;;;;;;16.00;11.10;;;;;;;;;;5060518;28;20186;-83
2023/01/28 07:24:09;;;;;;;17.40;11.33;;;;;;;;;;5059142;28;20416;-83
2023/01/28 07:26:35;;;;;;;14.02;10.43;;;;;;;;;;5077619;28;20730;-83
2023/01/28 07:29:01;;;;;;;16.87;11.70;;;;;;;;;;5043391;28;20190;-76
2023/01/28 07:31:27;;;;;;;14.40;11.10;;;;;;;;;;5079880;28;20880;-75
2023/01/28 07:33:53;;;;;;;14.07;10.97;;;;;;;;;;5045116;28;20487;-76
2023/01/28 07:36:19;;;;;;;12.60;10.30;;;;;;;;;;5044112;28;20495;-76
2023/01/28 07:38:45;;;;;;;15.57;10.47;;;;;;;;;;5061689;28;20401;-76
2023/01/28 07:41:11;;;;;;;13.90;10.75;;;;;;;;;;5060479;28;20426;-78
2023/01/28 07:43:36;;;;;;;14.70;10.90;;;;;;;;;;5061043;28;20258;-76
2023/01/28 07:46:02;;;;;;;13.80;10.63;;;;;;;;;;5043928;28;20759;-76
2023/01/28 07:48:29;;;;;;;13.75;10.15;;;;;;;;;;5044282;28;20472;-75
2023/01/28 07:50:58;;;;;;;18.67;12.38;;;;;;;;;;5078980;28;20195;-75
2023/01/28 07:53:24;;;;;;;16.45;9.82;;;;;;;;;;5061074;28;20183;-75
2023/01/28 07:55:50;;;;;;;13.77;10.90;;;;;;;;;;5061468;28;20222;-75
2023/01/28 07:58:16;;;;;;;16.63;11.27;;;;;;;;;;5078646;28;20284;-75
2023/01/28 08:00:42;;;;;;;12.50;9.50;;;;;;;;;;5061076;28;20408;-75
2023/01/28 08:03:15;;;;;;;13.85;10.77;;;;;;;;;;5077940;28;20399;-76
2023/01/28 08:05:44;;;;;;;14.57;9.45;;;;;;;;;;5060341;28;20287;-76
2023/01/28 08:08:11;;;;;;;10.60;9.48;;;;;;;;;;5077122;28;20230;-76
2023/01/28 08:10:37;;;;;;;14.50;11.20;;;;;;;;;;5060772;28;20170;-76
2023/01/28 08:13:04;;;;;;;14.73;10.77;;;;;;;;;;5060494;28;20191;-76
2023/01/28 08:15:30;;;;;;;13.48;10.02;;;;;;;;;;5060911;28;20655;-76
2023/01/28 08:17:57;;;;;;;17.45;11.75;;;;;;;;;;5060785;28;20208;-75
2023/01/28 08:20:23;;;;;;;15.40;9.38;;;;;;;;;;5060394;28;20240;-75
2023/01/28 08:22:49;;;;;;;18.63;11.02;;;;;;;;;;5061144;28;20546;-77
2023/01/28 08:25:15;;;;;;;16.63;10.27;;;;;;;;;;5060456;28;20181;-76
2023/01/28 08:27:41;;;;;;;15.80;11.53;;;;;;;;;;5044480;28;20181;-76
2023/01/28 08:30:08;;;;;;;14.87;10.67;;;;;;;;;;5043446;28;20425;-76
2023/01/28 08:32:34;;;;;;;18.20;11.40;;;;;;;;;;5078429;28;20410;-76
2023/01/28 08:35:00;;;;;;;12.38;10.50;;;;;;;;;;5060319;28;20208;-77
2023/01/28 08:37:26;;;;;;;15.05;11.15;;;;;;;;;;5060006;28;20191;-76
2023/01/28 08:39:52;;;;;;;15.40;11.45;;;;;;;;;;5043433;28;20188;-76
2023/01/28 08:42:18;;;;;;;18.77;11.75;;;;;;;;;;5059331;28;20176;-76
2023/01/28 08:44:44;;;;;;;14.45;11.15;;;;;;;;;;5060360;28;20179;-76
2023/01/28 08:47:10;;;;;;;17.23;12.43;;;;;;;;;;5043072;28;20173;-76
2023/01/28 08:49:36;;;;;;;20.70;12.38;;;;;;;;;;5059846;28;20279;-76
2023/01/28 08:52:02;;;;;;;15.52;11.55;;;;;;;;;;5060108;28;20180;-76
2023/01/28 08:54:28;;;;;;;15.77;12.18;;;;;;;;;;5059893;28;20208;-76
2023/01/28 08:56:54;;;;;;;20.27;14.82;;;;;;;;;;5060174;28;20179;-75
2023/01/28 08:59:20;;;;;;;18.15;12.68;;;;;;;;;;5058659;28;20180;-76
2023/01/28 09:01:46;;;;;;;16.00;11.93;;;;;;;;;;5060027;28;20194;-76
2023/01/28 09:04:12;;;;;;;16.83;11.50;;;;;;;;;;5058497;28;20428;-76
2023/01/28 09:06:38;;;;;;;14.53;11.00;;;;;;;;;;5042802;28;20608;-76
2023/01/28 09:09:04;;;;;;;20.80;12.55;;;;;;;;;;5059402;28;20408;-76
2023/01/28 09:11:30;;;;;;;15.87;11.67;;;;;;;;;;5043040;28;20194;-76
2023/01/28 09:13:59;;;;;;;23.30;16.90;;;;;;;;;;5077051;28;20482;-76
2023/01/28 09:16:27;;;;;;;21.40;15.20;;;;;;;;;;5059453;28;20784;-76
2023/01/28 09:18:53;;;;;;;13.88;10.80;;;;;;;;;;5077550;28;20233;-76
2023/01/28 09:21:20;;;;;;;15.23;11.50;;;;;;;;;;5059395;28;20255;-76
2023/01/28 09:23:46;;;;;;;15.77;10.90;;;;;;;;;;5059283;28;20229;-76
2023/01/28 09:26:11;;;;;;;15.43;11.60;;;;;;;;;;5042756;28;20187;-76
2023/01/28 09:28:39;;;;;;;16.67;11.57;;;;;;;;;;5059084;28;20517;-76
2023/01/28 09:31:06;;;;;;;17.95;12.63;;;;;;;;;;5077254;28;20733;-76
2023/01/28 09:33:32;;;;;;;17.10;12.75;;;;;;;;;;5077462;28;20589;-75
2023/01/28 09:36:02;;;;;;;15.70;11.70;;;;;;;;;;5042045;28;20573;-76
2023/01/28 09:38:28;;;;;;;17.05;12.30;;;;;;;;;;5072824;28;20184;-76
2023/01/28 09:40:55;;;;;;;16.77;11.27;;;;;;;;;;5058992;28;20181;-77
2023/01/28 09:43:33;;;;;;;15.88;12.20;;;;;;;;;;5058906;28;20224;-76
2023/01/28 09:46:02;;;;;;;15.48;11.95;;;;;;;;;;5059298;28;20213;-76
2023/01/28 09:48:31;;;;;;;14.60;11.50;;;;;;;;;;5058968;28;20175;-77
2023/01/28 09:50:58;;;;;;;17.60;12.55;;;;;;;;;;5058843;28;20266;-76
2023/01/28 09:53:35;;;;;;;19.42;12.52;;;;;;;;;;5076386;28;20989;-77
2023/01/28 09:56:02;;;;;;;16.20;12.02;;;;;;;;;;5076968;28;20187;-77
2023/01/28 09:58:28;;;;;;;15.18;11.85;;;;;;;;;;5076095;28;20537;-76
2023/01/28 10:01:05;;;;;;;16.88;13.63;;;;;;;;;;5058980;28;20202;-77
2023/01/28 10:03:35;;;;;;;14.35;11.88;;;;;;;;;;5065233;28;20184;-77
2023/01/28 10:06:04;;;;;;;15.60;13.65;;;;;;;;;;5053172;28;20184;-77
2023/01/28 10:08:37;;;;;;;14.43;11.95;;;;;;;;;;5075404;28;20176;-83
2023/01/28 10:11:19;;;;;;;15.75;13.00;;;;;;;;;;5079142;28;20178;-77
2023/01/28 10:13:56;;;;;;;15.73;13.95;;;;;;;;;;5058494;28;20184;-77
2023/01/28 10:16:29;;;;;;;38.30;34.10;;;;;;;;;;5059768;28;20168;-77
2023/01/28 10:18:58;;;;;;;22.27;19.27;;;;;;;;;;5059848;28;20173;-76
2023/01/28 10:21:33;;;;;;;15.05;12.60;;;;;;;;;;5074093;28;20659;-77
2023/01/28 10:24:02;;;;;;;17.85;13.95;;;;;;;;;;5056859;28;20263;-78
2023/01/28 10:26:32;;;;;;;20.85;14.20;;;;;;;;;;5059091;28;20169;-77
2023/01/28 10:29:02;;;;;;;18.45;15.65;;;;;;;;;;5060511;28;20178;-76
2023/01/28 10:31:31;;;;;;;15.88;12.82;;;;;;;;;;5059432;28;20173;-77
2023/01/28 10:33:57;;;;;;;16.20;13.95;;;;;;;;;;5075319;28;20694;-77
2023/01/28 10:36:23;;;;;;;19.40;16.08;;;;;;;;;;5074804;28;20193;-77
2023/01/28 10:38:49;;;;;;;15.52;14.05;;;;;;;;;;5075685;28;20185;-77
2023/01/28 10:41:19;;;;;;;15.53;13.17;;;;;;;;;;5058189;28;20188;-77
2023/01/28 10:43:46;;;;;;;16.17;13.48;;;;;;;;;;5071268;28;20442;-77
2023/01/28 10:46:16;;;;;;;18.00;14.50;;;;;;;;;;5046994;28;20573;-76
2023/01/28 10:48:43;;;;;;;13.88;12.43;;;;;;;;;;5047941;28;20176;-77
2023/01/28 10:51:09;;;;;;;14.45;12.95;;;;;;;;;;5047951;28;20180;-78
2023/01/28 10:53:43;;;;;;;14.45;11.88;;;;;;;;;;5070091;28;20180;-77
2023/01/28 10:56:11;;;;;;;12.23;10.93;;;;;;;;;;5072136;28;20180;-78
2023/01/28 10:58:47;;;;;;;12.77;11.48;;;;;;;;;;5065441;28;20291;-77
2023/01/28 11:01:13;;;;;;;13.15;11.75;;;;;;;;;;5049604;28;20647;-77
2023/01/28 11:03:40;;;;;;;20.67;14.20;;;;;;;;;;5053161;28;20181;-78
2023/01/28 11:06:22;;;;;;;16.27;11.90;;;;;;;;;;5021252;28;20511;-77
2023/01/28 11:08:48;;;;;;;16.95;11.40;;;;;;;;;;5040663;28;20226;-77
2023/01/28 11:11:14;;;;;;;17.40;12.20;;;;;;;;;;5039019;28;20197;-76
2023/01/28 11:13:49;;;;;;;14.77;11.90;;;;;;;;;;5021654;28;20788;-77
2023/01/28 11:16:19;;;;;;;13.30;11.60;;;;;;;;;;5039101;28;20397;-77
2023/01/28 11:18:51;;;;;;;16.08;12.43;;;;;;;;;;5038515;28;20182;-77
2023/01/28 11:21:28;;;;;;;14.20;11.25;;;;;;;;;;5020477;28;20227;-77
2023/01/28 11:23:56;;;;;;;15.95;11.85;;;;;;;;;;5021618;28;20173;-77
2023/01/28 11:26:24;;;;;;;16.65;11.98;;;;;;;;;;5039027;28;20178;-77
2023/01/28 11:28:51;;;;;;;19.23;11.77;;;;;;;;;;5039394;28;20173;-77
2023/01/28 11:31:18;;;;;;;16.05;13.35;;;;;;;;;;5038716;28;20405;-77
2023/01/28 11:34:00;;;;;;;22.05;13.20;;;;;;;;;;5041071;28;20169;-77
2023/01/28 11:36:27;;;;;;;12.85;11.57;;;;;;;;;;5067663;28;20597;-76
2023/01/28 11:38:59;;;;;;;17.38;12.15;;;;;;;;;;5070362;28;20172;-76
2023/01/28 11:41:27;;;;;;;16.95;11.95;;;;;;;;;;5060487;28;20182;-78
2023/01/28 11:43:54;;;;;;;13.60;12.18;;;;;;;;;;5078830;28;20184;-78
2023/01/28 11:46:20;;;;;;;15.05;11.85;;;;;;;;;;5060744;28;20176;-77
2023/01/28 11:48:55;;;;;;;14.90;13.17;;;;;;;;;;5061267;28;20198;-77
2023/01/28 11:51:42;;;;;;;19.20;13.23;;;;;;;;;;5059251;28;20424;-77
2023/01/28 11:54:14;;;;;;;20.77;13.65;;;;;;;;;;5060320;28;20203;-77
2023/01/28 11:56:40;;;;;;;17.50;13.27;;;;;;;;;;5061157;28;20322;-76
2023/01/28 11:59:16;;;;;;;17.13;13.47;;;;;;;;;;5058642;28;20644;-76
2023/01/28 12:01:48;;;;;;;19.63;15.10;;;;;;;;;;5050031;28;21211;-77
2023/01/28 12:04:37;;;;;;;18.60;14.82;;;;;;;;;;5060253;28;20522;-78
2023/01/28 12:07:12;;;;;;;17.70;14.25;;;;;;;;;;5059246;28;20235;-77
2023/01/28 12:09:44;;;;;;;13.82;12.30;;;;;;;;;;5078427;28;20151;-77
2023/01/28 12:12:10;;;;;;;18.75;13.60;;;;;;;;;;5060100;28;20177;-77
2023/01/28 12:14:51;;;;;;;14.98;12.45;;;;;;;;;;5076800;28;20204;-77
2023/01/28 12:17:36;;;;;;;15.93;12.32;;;;;;;;;;5076540;28;20534;-76
2023/01/28 12:20:21;;;;;;;16.40;12.35;;;;;;;;;;5059306;28;20264;-75
2023/01/28 12:22:47;;;;;;;12.82;11.35;;;;;;;;;;5059955;28;20179;-75
2023/01/28 12:25:31;;;;;;;15.05;10.52;;;;;;;;;;5078012;28;20260;-75
2023/01/28 12:28:24;;;;;;;14.77;11.30;;;;;;;;;;5077902;28;20183;-75
2023/01/28 12:31:02;;;;;;;11.23;10.07;;;;;;;;;;5075268;28;20188;-75
2023/01/28 12:33:40;;;;;;;13.90;11.45;;;;;;;;;;5077475;28;20237;-75
2023/01/28 12:36:24;;;;;;;12.73;11.10;;;;;;;;;;5059479;28;20669;-76
2023/01/28 12:38:53;;;;;;;13.57;10.45;;;;;;;;;;5078145;28;20202;-74
2023/01/28 12:41:22;;;;;;;12.27;10.60;;;;;;;;;;5060283;28;20172;-74
2023/01/28 12:43:56;;;;;;;12.93;11.50;;;;;;;;;;5059421;28;20628;-77
2023/01/28 12:46:40;;;;;;;13.85;11.38;;;;;;;;;;5076627;28;20248;-77
2023/01/28 12:49:13;;;;;;;13.73;11.65;;;;;;;;;;5059726;28;20181;-76
2023/01/28 12:51:39;;;;;;;13.02;11.50;;;;;;;;;;5076623;28;20173;-78
2023/01/28 12:54:16;;;;;;;14.17;11.13;;;;;;;;;;5057325;28;20261;-82
2023/01/28 12:56:44;;;;;;;13.75;11.77;;;;;;;;;;5057587;28;20437;-86
2023/01/28 12:59:32;;;;;;;16.27;12.63;;;;;;;;;;5056988;28;20175;-81
2023/01/28 13:02:05;;;;;;;15.57;12.48;;;;;;;;;;5066049;28;20563;-77
2023/01/28 13:04:38;;;;;;;11.15;9.95;;;;;;;;;;5074067;28;20187;-76
2023/01/28 13:07:10;;;;;;;12.63;11.32;;;;;;;;;;5058620;28;20235;-76
2023/01/28 13:09:37;;;;;;;15.00;12.50;;;;;;;;;;5060075;28;20177;-77
2023/01/28 13:12:04;;;;;;;16.17;12.93;;;;;;;;;;5059338;28;20187;-76
2023/01/28 13:14:31;;;;;;;14.35;11.10;;;;;;;;;;5057267;28;20215;-81
2023/01/28 13:17:24;;;;;;;12.48;11.18;;;;;;;;;;5057303;28;20188;-80
2023/01/28 13:19:50;;;;;;;14.20;11.15;;;;;;;;;;5057272;28;20176;-79
2023/01/28 13:22:27;;;;;;;14.97;11.63;;;;;;;;;;5056654;28;20770;-77
2023/01/28 13:24:53;;;;;;;13.30;11.85;;;;;;;;;;5057920;28;20445;-82
2023/01/28 13:27:23;;;;;;;13.95;12.15;;;;;;;;;;5056749;28;20176;-77
2023/01/28 13:29:59;;;;;;;14.45;10.68;;;;;;;;;;5074392;28;20173;-78
2023/01/28 13:32:30;;;;;;;13.23;11.40;;;;;;;;;;5056908;28;20169;-77
2023/01/28 13:34:57;;;;;;;13.02;11.02;;;;;;;;;;5058458;28;20228;-76
2023/01/28 13:37:34;;;;;;;12.73;11.43;;;;;;;;;;5057765;28;20189;-81
2023/01/28 13:40:03;;;;;;;12.50;11.05;;;;;;;;;;5057798;28;20177;-82
2023/01/28 13:42:30;;;;;;;12.02;10.43;;;;;;;;;;5058633;28;20629;-78
2023/01/28 13:44:57;;;;;;;10.80;9.70;;;;;;;;;;5077754;28;20256;-78
2023/01/28 13:47:25;;;;;;;12.52;11.20;;;;;;;;;;5080574;28;20709;-77
2023/01/28 13:50:01;;;;;;;11.70;10.57;;;;;;;;;;5063175;28;20663;-73
2023/01/28 13:52:29;;;;;;;11.73;10.63;;;;;;;;;;5081351;28;20206;-76
2023/01/28 13:55:10;;;;;;;11.13;9.65;;;;;;;;;;5081046;28;20524;-78
2023/01/28 13:57:54;;;;;;;11.20;10.18;;;;;;;;;;5079686;28;20302;-74
2023/01/28 14:00:25;;;;;;;12.15;10.95;;;;;;;;;;5062220;28;20599;-76
2023/01/28 14:03:03;;;;;;;15.15;9.93;;;;;;;;;;5071402;28;20205;-78
2023/01/28 14:05:42;;;;;;;10.88;9.88;;;;;;;;;;5041984;28;20185;-77
2023/01/28 14:08:25;;;;;;;10.77;9.77;;;;;;;;;;5060109;28;20244;-78
2023/01/28 14:11:03;;;;;;;12.00;10.90;;;;;;;;;;5060473;28;20375;-77
2023/01/28 14:13:35;;;;;;;11.57;10.15;;;;;;;;;;5060302;28;20165;-76
2023/01/28 14:16:21;;;;;;;10.90;9.90;;;;;;;;;;5061329;28;20196;-75
2023/01/28 14:18:47;;;;;;;10.57;9.60;;;;;;;;;;5061536;28;20177;-75
2023/01/28 14:21:15;;;;;;;11.07;9.98;;;;;;;;;;5026099;28;20181;-75
2023/01/28 14:23:47;;;;;;;11.43;10.05;;;;;;;;;;5043532;28;20177;-75
2023/01/28 14:26:20;;;;;;;10.90;9.80;;;;;;;;;;5063409;28;20711;-75
2023/01/28 14:28:45;;;;;;;10.75;9.65;;;;;;;;;;5042593;28;20181;-76
2023/01/28 14:31:15;;;;;;;11.73;10.57;;;;;;;;;;5060883;28;20181;-75
2023/01/28 14:33:43;;;;;;;12.00;10.90;;;;;;;;;;5075540;28;20771;-76
2023/01/28 14:36:10;;;;;;;12.30;10.80;;;;;;;;;;5059611;28;20220;-75
2023/01/28 14:38:38;;;;;;;10.98;9.98;;;;;;;;;;5060472;28;20171;-75
2023/01/28 14:41:05;;;;;;;11.20;10.07;;;;;;;;;;5060725;28;20629;-75
2023/01/28 14:43:32;;;;;;;11.57;10.48;;;;;;;;;;5074472;28;20173;-76
2023/01/28 14:46:28;;;;;;;11.93;10.73;;;;;;;;;;5059951;28;20186;-76
2023/01/28 14:49:13;;;;;;;11.63;10.50;;;;;;;;;;5059575;28;20161;-76
2023/01/28 14:51:42;;;;;;;15.85;11.75;;;;;;;;;;5060265;28;20173;-76
2023/01/28 14:54:11;;;;;;;11.20;10.00;;;;;;;;;;5059222;28;20636;-76
2023/01/28 14:56:57;;;;;;;12.48;11.20;;;;;;;;;;5057445;28;20185;-78
2023/01/28 14:59:26;;;;;;;11.70;10.50;;;;;;;;;;5059213;28;20176;-76
2023/01/28 15:01:55;;;;;;;11.15;10.15;;;;;;;;;;5059250;28;20237;-76
2023/01/28 15:04:25;;;;;;;15.32;11.52;;;;;;;;;;5062490;28;20249;-76
2023/01/28 15:06:51;;;;;;;12.70;11.15;;;;;;;;;;5078151;28;20298;-76
2023/01/28 15:09:17;;;;;;;12.35;11.15;;;;;;;;;;5079461;28;20641;-76